Time;durP1;ratioP1;P1;durP2;ratioP2;P2;SDS_P1;SDS_P2;PMS_P1;PMS_P2;Temp;Humidity;BMP_temperature;BMP_pressure;BME280_temperature;BME280_humidity;BME280_pressure;Samples;Min_cycle;Max_cycle;Signal;HPM_P1;HPM_P2
2024/04/11 00:00:57;;;;;;;;;2.67;2.00;;;;;;;;5502336;25;43977;-76
2024/04/11 00:03:22;;;;;;;;;3.33;2.00;;;;;;;;5501893;25;43881;-76
2024/04/11 00:05:47;;;;;;;;;4.00;4.00;;;;;;;;5502208;25;43907;-76
2024/04/11 00:08:12;;;;;;;;;3.67;2.00;;;;;;;;5502604;25;43828;-76
2024/04/11 00:10:37;;;;;;;;;3.00;3.00;;;;;;;;5500619;25;43991;-76
2024/04/11 00:13:03;;;;;;;;;1.00;1.00;;;;;;;;5500348;25;45928;-75
2024/04/11 00:15:28;;;;;;;;;3.00;1.00;;;;;;;;5501983;25;44808;-76
2024/04/11 00:17:53;;;;;;;;;2.67;2.67;;;;;;;;5502130;25;43913;-76
2024/04/11 00:20:19;;;;;;;;;1.33;1.33;;;;;;;;5500099;25;44063;-76
2024/04/11 00:22:46;;;;;;;;;3.00;3.00;;;;;;;;5499156;25;45274;-76
2024/04/11 00:25:13;;;;;;;;;1.67;1.67;;;;;;;;5499269;25;43942;-76
2024/04/11 00:27:38;;;;;;;;;2.00;2.00;;;;;;;;5501513;25;43843;-76
2024/04/11 00:30:03;;;;;;;;;2.33;2.33;;;;;;;;5501676;25;43922;-76
2024/04/11 00:32:28;;;;;;;;;2.33;2.00;;;;;;;;5499842;25;44929;-76
2024/04/11 00:34:53;;;;;;;;;1.33;1.33;;;;;;;;5499739;25;46965;-76
2024/04/11 00:37:20;;;;;;;;;3.00;3.00;;;;;;;;5501046;25;43730;-76
2024/04/11 00:39:46;;;;;;;;;1.67;1.67;;;;;;;;5501642;25;43897;-76
2024/04/11 00:42:12;;;;;;;;;2.33;2.00;;;;;;;;5501157;25;43894;-76
2024/04/11 00:44:37;;;;;;;;;1.67;1.67;;;;;;;;5503936;25;44851;-76
2024/04/11 00:47:09;;;;;;;;;1.67;1.67;;;;;;;;5504428;25;43843;-76
2024/04/11 00:49:35;;;;;;;;;2.00;2.00;;;;;;;;5500506;25;43941;-76
2024/04/11 00:52:00;;;;;;;;;4.00;2.33;;;;;;;;5504271;25;43978;-76
2024/04/11 00:54:27;;;;;;;;;2.00;2.00;;;;;;;;5502541;25;46235;-76
2024/04/11 00:56:52;;;;;;;;;1.00;1.00;;;;;;;;5504422;25;43881;-76
2024/04/11 00:59:18;;;;;;;;;2.00;2.00;;;;;;;;5504383;25;44524;-76
2024/04/11 01:01:44;;;;;;;;;2.33;2.33;;;;;;;;5504390;25;43932;-76
2024/04/11 01:04:09;;;;;;;;;3.00;1.67;;;;;;;;5504167;25;44073;-76
2024/04/11 01:07:06;;;;;;;;;2.00;2.00;;;;;;;;5504385;25;43920;-76
2024/04/11 01:09:27;;;;;;;;;2.67;2.67;;;;;;;;5504545;25;43892;-75
2024/04/11 01:11:52;;;;;;;;;0.67;0.67;;;;;;;;5504237;25;44042;-76
2024/04/11 01:14:17;;;;;;;;;2.00;2.00;;;;;;;;5502268;25;45557;-75
2024/04/11 01:16:42;;;;;;;;;0.67;0.67;;;;;;;;5504649;25;43904;-76
2024/04/11 01:19:08;;;;;;;;;2.00;2.00;;;;;;;;5502726;25;43904;-76
2024/04/11 01:21:36;;;;;;;;;2.33;2.00;;;;;;;;5502458;25;44804;-76
2024/04/11 01:24:03;;;;;;;;;2.00;1.67;;;;;;;;5504400;25;43864;-76
2024/04/11 01:26:28;;;;;;;;;1.67;1.67;;;;;;;;5504421;25;43662;-76
2024/04/11 01:28:54;;;;;;;;;1.00;1.00;;;;;;;;5504653;25;44024;-76
2024/04/11 01:31:19;;;;;;;;;2.00;2.00;;;;;;;;5504089;25;43748;-75
2024/04/11 01:33:46;;;;;;;;;1.67;1.67;;;;;;;;5504270;25;44927;-76
2024/04/11 01:36:13;;;;;;;;;2.00;2.00;;;;;;;;5504183;25;43892;-76
2024/04/11 01:38:38;;;;;;;;;2.67;2.67;;;;;;;;5502578;25;43892;-76
2024/04/11 01:41:03;;;;;;;;;2.00;2.00;;;;;;;;5504088;25;43919;-76
2024/04/11 01:43:28;;;;;;;;;2.00;2.00;;;;;;;;5501889;25;45933;-76
2024/04/11 01:45:53;;;;;;;;;2.33;2.33;;;;;;;;5504207;25;43860;-75
2024/04/11 01:48:18;;;;;;;;;1.33;1.00;;;;;;;;5504360;25;44067;-76
2024/04/11 01:50:46;;;;;;;;;2.33;2.33;;;;;;;;5503663;25;43929;-76
2024/04/11 01:53:11;;;;;;;;;2.00;2.00;;;;;;;;5502808;25;45016;-76
2024/04/11 01:55:36;;;;;;;;;3.00;1.67;;;;;;;;5502863;25;43743;-76
2024/04/11 01:58:02;;;;;;;;;3.33;3.33;;;;;;;;5502535;25;43826;-76
2024/04/11 02:00:29;;;;;;;;;2.00;2.00;;;;;;;;5501884;25;45674;-76
2024/04/11 02:02:54;;;;;;;;;2.00;2.00;;;;;;;;5503507;25;44013;-76
2024/04/11 02:05:20;;;;;;;;;2.00;2.00;;;;;;;;5503976;25;43976;-76
2024/04/11 02:07:45;;;;;;;;;1.33;1.33;;;;;;;;5503935;25;43723;-76
2024/04/11 02:10:11;;;;;;;;;1.00;1.00;;;;;;;;5501949;25;44975;-76
2024/04/11 02:12:37;;;;;;;;;2.00;2.00;;;;;;;;5502051;25;46638;-75
2024/04/11 02:15:06;;;;;;;;;3.00;2.00;;;;;;;;5503726;25;43960;-76
2024/04/11 02:17:32;;;;;;;;;1.33;1.00;;;;;;;;5504027;25;43948;-76
2024/04/11 02:19:59;;;;;;;;;2.67;2.33;;;;;;;;5503709;25;43645;-76
2024/04/11 02:22:24;;;;;;;;;5.00;3.00;;;;;;;;5503758;25;43811;-76
2024/04/11 02:24:49;;;;;;;;;1.33;1.00;;;;;;;;5501986;25;43740;-76
2024/04/11 02:27:14;;;;;;;;;3.67;2.33;;;;;;;;5504020;25;43638;-76
2024/04/11 02:29:39;;;;;;;;;2.00;2.00;;;;;;;;5501628;25;45031;-76
2024/04/11 02:32:04;;;;;;;;;2.00;2.00;;;;;;;;5503601;25;45224;-76
2024/04/11 02:34:30;;;;;;;;;1.67;1.67;;;;;;;;5503569;25;43789;-76
2024/04/11 02:36:56;;;;;;;;;3.00;2.00;;;;;;;;5503732;25;44196;-76
2024/04/11 02:39:21;;;;;;;;;1.00;1.00;;;;;;;;5501913;25;44919;-76
2024/04/11 02:41:46;;;;;;;;;3.00;3.00;;;;;;;;5501428;25;46756;-76
2024/04/11 02:44:11;;;;;;;;;1.00;1.00;;;;;;;;5501292;25;43990;-75
2024/04/11 02:46:39;;;;;;;;;3.00;2.67;;;;;;;;5503783;25;43901;-76
2024/04/11 02:49:05;;;;;;;;;2.00;2.00;;;;;;;;5503596;25;43828;-76
2024/04/11 02:51:30;;;;;;;;;2.00;2.00;;;;;;;;5503449;25;43912;-76
2024/04/11 02:53:55;;;;;;;;;2.67;2.67;;;;;;;;5501352;25;44023;-76
2024/04/11 02:56:20;;;;;;;;;2.00;2.00;;;;;;;;5503637;25;43916;-76
2024/04/11 02:58:45;;;;;;;;;2.00;2.00;;;;;;;;5503229;25;43832;-76
2024/04/11 03:01:11;;;;;;;;;0.00;0.00;;;;;;;;5503352;25;43940;-76
2024/04/11 03:03:37;;;;;;;;;2.67;1.67;;;;;;;;5501455;25;44404;-76
2024/04/11 03:06:11;;;;;;;;;3.00;2.33;;;;;;;;5503272;25;43716;-76
2024/04/11 03:08:40;;;;;;;;;3.00;3.00;;;;;;;;5502534;25;44047;-76
2024/04/11 03:11:06;;;;;;;;;1.00;1.00;;;;;;;;5503084;25;44752;-75
2024/04/11 03:13:32;;;;;;;;;3.67;2.00;;;;;;;;5503030;25;43855;-76
2024/04/11 03:16:00;;;;;;;;;2.00;2.00;;;;;;;;5503798;25;44029;-76
2024/04/11 03:18:25;;;;;;;;;3.00;3.00;;;;;;;;5502660;25;45502;-76
2024/04/11 03:20:51;;;;;;;;;2.00;2.00;;;;;;;;5503196;25;44257;-75
2024/04/11 03:23:17;;;;;;;;;2.67;2.00;;;;;;;;5501241;25;43878;-77
2024/04/11 03:25:42;;;;;;;;;1.00;1.00;;;;;;;;5501193;25;43905;-75
2024/04/11 03:28:07;;;;;;;;;3.00;2.33;;;;;;;;5501322;25;44471;-76
2024/04/11 03:30:32;;;;;;;;;1.67;1.67;;;;;;;;5500820;25;45961;-76
2024/04/11 03:32:58;;;;;;;;;2.00;2.00;;;;;;;;5502963;25;43791;-76
2024/04/11 03:35:23;;;;;;;;;3.00;3.00;;;;;;;;5503100;25;44049;-76
2024/04/11 03:37:49;;;;;;;;;2.00;2.00;;;;;;;;5501283;25;43926;-76
2024/04/11 03:40:15;;;;;;;;;1.33;1.33;;;;;;;;5502783;25;44916;-75
2024/04/11 03:42:41;;;;;;;;;3.00;3.00;;;;;;;;5502632;25;44418;-76
2024/04/11 03:45:10;;;;;;;;;2.33;2.33;;;;;;;;5502929;25;43890;-76
2024/04/11 03:47:37;;;;;;;;;3.00;3.00;;;;;;;;5500895;25;44938;-76
2024/04/11 03:50:03;;;;;;;;;3.00;3.00;;;;;;;;5502199;25;43796;-76
2024/04/11 03:52:28;;;;;;;;;4.00;3.33;;;;;;;;5502761;25;43797;-76
2024/04/11 03:54:54;;;;;;;;;3.33;3.33;;;;;;;;5501045;25;43731;-76
2024/04/11 03:57:19;;;;;;;;;2.00;2.00;;;;;;;;5502431;25;43714;-76
2024/04/11 03:59:45;;;;;;;;;4.00;2.00;;;;;;;;5502311;25;43790;-76
2024/04/11 04:02:10;;;;;;;;;2.00;2.00;;;;;;;;5502625;25;43985;-76
2024/04/11 04:04:36;;;;;;;;;2.67;2.67;;;;;;;;5502468;25;43919;-77
2024/04/11 04:07:01;;;;;;;;;4.00;3.00;;;;;;;;5500460;25;44853;-76
2024/04/11 04:09:26;;;;;;;;;3.00;3.00;;;;;;;;5502399;25;45249;-76
2024/04/11 04:11:51;;;;;;;;;3.33;3.33;;;;;;;;5502270;25;43956;-76
2024/04/11 04:14:16;;;;;;;;;3.00;3.00;;;;;;;;5502183;25;43960;-76
2024/04/11 04:16:42;;;;;;;;;2.67;2.67;;;;;;;;5500304;25;45902;-75
2024/04/11 04:19:07;;;;;;;;;3.33;3.33;;;;;;;;5503847;25;43859;-76
2024/04/11 04:21:34;;;;;;;;;3.00;3.00;;;;;;;;5503234;25;43786;-76
2024/04/11 04:24:02;;;;;;;;;2.33;2.33;;;;;;;;5505442;25;43969;-76
2024/04/11 04:26:30;;;;;;;;;2.67;2.67;;;;;;;;5505218;25;43964;-76
2024/04/11 04:28:56;;;;;;;;;5.33;3.00;;;;;;;;5503023;25;45960;-75
2024/04/11 04:31:22;;;;;;;;;3.00;3.00;;;;;;;;5502786;25;43826;-76
2024/04/11 04:33:48;;;;;;;;;3.67;3.67;;;;;;;;5504072;25;43827;-76
2024/04/11 04:36:18;;;;;;;;;3.75;3.00;;;;;;;;5504860;25;44010;-76
2024/04/11 04:38:44;;;;;;;;;3.00;2.00;;;;;;;;5504339;25;43720;-76
2024/04/11 04:41:10;;;;;;;;;2.00;2.00;;;;;;;;5502488;25;44035;-76
2024/04/11 04:43:35;;;;;;;;;3.00;3.00;;;;;;;;5504549;25;44093;-76
2024/04/11 04:46:00;;;;;;;;;3.00;3.00;;;;;;;;5504263;25;43793;-76
2024/04/11 04:48:27;;;;;;;;;2.67;2.00;;;;;;;;5504424;25;43945;-76
2024/04/11 04:50:52;;;;;;;;;3.00;2.67;;;;;;;;5504839;25;44031;-76
2024/04/11 04:53:17;;;;;;;;;3.00;3.00;;;;;;;;5504923;25;43831;-76
2024/04/11 04:55:42;;;;;;;;;3.00;3.00;;;;;;;;5504726;25;43878;-76
2024/04/11 04:58:07;;;;;;;;;2.67;2.67;;;;;;;;5504473;25;44891;-76
2024/04/11 05:00:33;;;;;;;;;3.67;3.67;;;;;;;;5504495;25;43979;-76
2024/04/11 05:03:03;;;;;;;;;3.33;3.00;;;;;;;;5504820;25;43960;-76
2024/04/11 05:05:28;;;;;;;;;4.33;4.00;;;;;;;;5504620;25;43825;-76
2024/04/11 05:07:54;;;;;;;;;5.00;4.00;;;;;;;;5504575;25;45125;-76
2024/04/11 05:10:20;;;;;;;;;2.33;2.33;;;;;;;;5504683;25;44163;-76
2024/04/11 05:12:49;;;;;;;;;3.00;2.33;;;;;;;;5504822;25;43822;-76
2024/04/11 05:15:14;;;;;;;;;2.00;2.00;;;;;;;;5504228;25;43913;-76
2024/04/11 05:17:43;;;;;;;;;4.00;3.00;;;;;;;;5504566;25;43832;-76
2024/04/11 05:20:17;;;;;;;;;4.00;3.00;;;;;;;;5504315;25;43722;-76
2024/04/11 05:22:46;;;;;;;;;4.00;4.00;;;;;;;;5504568;25;43710;-76
2024/04/11 05:25:14;;;;;;;;;4.33;4.33;;;;;;;;5504358;25;43875;-76
2024/04/11 05:27:39;;;;;;;;;6.33;4.33;;;;;;;;5504520;25;43857;-76
2024/04/11 05:30:10;;;;;;;;;5.00;4.00;;;;;;;;5501242;25;45030;-76
2024/04/11 05:32:36;;;;;;;;;5.00;4.00;;;;;;;;5504487;25;43948;-76
2024/04/11 05:35:01;;;;;;;;;3.00;3.00;;;;;;;;5504396;25;43943;-76
2024/04/11 05:37:26;;;;;;;;;2.00;2.00;;;;;;;;5502328;25;45907;-76
2024/04/11 05:39:51;;;;;;;;;4.00;4.00;;;;;;;;5504399;25;44073;-76
2024/04/11 05:42:17;;;;;;;;;3.67;3.67;;;;;;;;5503836;25;44048;-75
2024/04/11 05:44:42;;;;;;;;;4.33;3.33;;;;;;;;5503929;25;43931;-75
2024/04/11 05:47:08;;;;;;;;;5.00;3.33;;;;;;;;5502288;25;46945;-76
2024/04/11 05:49:33;;;;;;;;;4.33;4.00;;;;;;;;5502035;25;44744;-76
2024/04/11 05:52:00;;;;;;;;;5.67;5.00;;;;;;;;5502035;25;43842;-75
2024/04/11 05:54:25;;;;;;;;;3.67;3.67;;;;;;;;5504019;25;43847;-76
2024/04/11 05:56:52;;;;;;;;;4.67;4.00;;;;;;;;5503955;25;43803;-76
2024/04/11 05:59:19;;;;;;;;;5.00;4.00;;;;;;;;5503799;25;43723;-76
2024/04/11 06:01:44;;;;;;;;;4.00;4.00;;;;;;;;5501992;25;44256;-76
2024/04/11 06:04:09;;;;;;;;;6.00;4.00;;;;;;;;5503890;25;43669;-75
2024/04/11 06:06:35;;;;;;;;;4.00;3.67;;;;;;;;5502144;25;45734;-76
2024/04/11 06:09:00;;;;;;;;;6.33;5.33;;;;;;;;5515850;25;43717;-75
2024/04/11 06:11:25;;;;;;;;;4.00;4.00;;;;;;;;5541420;25;43884;-76
2024/04/11 06:13:53;;;;;;;;;4.67;4.67;;;;;;;;5538667;25;44809;-76
2024/04/11 06:16:19;;;;;;;;;5.00;5.00;;;;;;;;5539304;25;44807;-76
2024/04/11 06:18:44;;;;;;;;;5.00;4.00;;;;;;;;5539261;25;43862;-76
2024/04/11 06:21:11;;;;;;;;;4.00;3.67;;;;;;;;5541372;25;43881;-76
2024/04/11 06:23:36;;;;;;;;;4.00;4.00;;;;;;;;5541277;25;43646;-76
2024/04/11 06:26:02;;;;;;;;;5.00;5.00;;;;;;;;5538969;25;44145;-76
2024/04/11 06:28:28;;;;;;;;;3.67;3.33;;;;;;;;5540895;25;44133;-75
2024/04/11 06:30:54;;;;;;;;;3.33;3.33;;;;;;;;5537455;25;44097;-76
2024/04/11 06:33:21;;;;;;;;;2.00;2.00;;;;;;;;5541178;25;43776;-76
2024/04/11 06:35:47;;;;;;;;;5.00;5.00;;;;;;;;5538903;25;46034;-76
2024/04/11 06:38:15;;;;;;;;;3.00;3.00;;;;;;;;5540786;25;44034;-76
2024/04/11 06:40:44;;;;;;;;;5.67;5.67;;;;;;;;5541363;25;43800;-76
2024/04/11 06:43:13;;;;;;;;;6.00;5.00;;;;;;;;5540611;25;43754;-76
2024/04/11 06:45:38;;;;;;;;;3.33;3.33;;;;;;;;5540615;25;43995;-76
2024/04/11 06:48:03;;;;;;;;;5.00;4.33;;;;;;;;5540806;25;43837;-76
2024/04/11 06:50:29;;;;;;;;;6.00;4.67;;;;;;;;5540672;25;43991;-76
2024/04/11 06:52:55;;;;;;;;;5.67;5.67;;;;;;;;5538914;25;45822;-76
2024/04/11 06:55:21;;;;;;;;;3.33;3.00;;;;;;;;5540584;25;43839;-76
2024/04/11 06:57:46;;;;;;;;;3.33;3.33;;;;;;;;5519749;25;43843;-76
2024/04/11 07:00:21;;;;;;;;;4.00;4.00;;;;;;;;5501553;25;44335;-76
2024/04/11 07:02:48;;;;;;;;;3.67;3.33;;;;;;;;5501428;25;44683;-76
2024/04/11 07:05:16;;;;;;;;;4.00;2.33;;;;;;;;5503133;25;44913;-76
2024/04/11 07:07:41;;;;;;;;;4.33;3.33;;;;;;;;5499293;25;44171;-76
2024/04/11 07:10:15;;;;;;;;;4.00;3.00;;;;;;;;5501705;25;43926;-76
2024/04/11 07:12:41;;;;;;;;;5.67;3.33;;;;;;;;5503443;25;43736;-75
2024/04/11 07:15:06;;;;;;;;;3.33;3.33;;;;;;;;5501132;25;45484;-75
2024/04/11 07:17:32;;;;;;;;;4.33;4.33;;;;;;;;5503275;25;43944;-76
2024/04/11 07:19:58;;;;;;;;;3.33;3.33;;;;;;;;5503246;25;43826;-76
2024/04/11 07:22:24;;;;;;;;;1.33;1.00;;;;;;;;5503168;25;44087;-77
2024/04/11 07:24:49;;;;;;;;;5.33;4.00;;;;;;;;5502514;25;43951;-75
2024/04/11 07:27:17;;;;;;;;;7.00;7.00;;;;;;;;5501127;25;44277;-75
2024/04/11 07:29:42;;;;;;;;;5.67;4.00;;;;;;;;5502507;25;44029;-74
2024/04/11 07:32:07;;;;;;;;;3.33;3.33;;;;;;;;5502815;25;43720;-75
2024/04/11 07:34:33;;;;;;;;;4.33;3.33;;;;;;;;5501091;25;46839;-75
2024/04/11 07:36:59;;;;;;;;;3.00;3.00;;;;;;;;5502876;25;43739;-74
2024/04/11 07:39:26;;;;;;;;;5.33;5.00;;;;;;;;5501338;25;43707;-75
2024/04/11 07:42:00;;;;;;;;;5.00;5.00;;;;;;;;5502646;25;44110;-74
2024/04/11 07:44:25;;;;;;;;;5.00;5.00;;;;;;;;5502543;25;43911;-75
2024/04/11 07:46:51;;;;;;;;;4.00;4.00;;;;;;;;5503071;25;43792;-75
2024/04/11 07:49:16;;;;;;;;;5.00;4.00;;;;;;;;5502682;25;43828;-76
2024/04/11 07:51:41;;;;;;;;;5.00;4.00;;;;;;;;5502775;25;43931;-75
2024/04/11 07:54:13;;;;;;;;;6.67;5.00;;;;;;;;5498213;25;43929;-75
2024/04/11 07:56:39;;;;;;;;;3.67;3.67;;;;;;;;5499440;25;44543;-75
2024/04/11 07:59:06;;;;;;;;;5.00;3.00;;;;;;;;5500077;25;43846;-75
2024/04/11 08:01:31;;;;;;;;;3.67;3.67;;;;;;;;5499995;25;44994;-75
2024/04/11 08:04:02;;;;;;;;;4.33;4.33;;;;;;;;5500317;25;45066;-75
2024/04/11 08:06:31;;;;;;;;;3.00;3.00;;;;;;;;5501896;25;43920;-75
2024/04/11 08:08:57;;;;;;;;;4.00;3.33;;;;;;;;5500290;25;43812;-75
2024/04/11 08:11:22;;;;;;;;;4.67;3.33;;;;;;;;5502139;25;43881;-75
2024/04/11 08:13:47;;;;;;;;;3.67;2.67;;;;;;;;5501752;25;43764;-75
2024/04/11 08:16:13;;;;;;;;;3.33;3.00;;;;;;;;5499993;25;44306;-75
2024/04/11 08:18:38;;;;;;;;;4.00;3.67;;;;;;;;5501965;25;43827;-75
2024/04/11 08:21:07;;;;;;;;;5.00;3.33;;;;;;;;5501472;25;43844;-75
2024/04/11 08:23:34;;;;;;;;;4.33;3.67;;;;;;;;5502237;25;44947;-75
2024/04/11 08:26:00;;;;;;;;;3.00;3.00;;;;;;;;5499531;25;43672;-75
2024/04/11 08:28:25;;;;;;;;;2.33;2.33;;;;;;;;5501659;25;43988;-76
2024/04/11 08:30:52;;;;;;;;;5.33;4.00;;;;;;;;5499428;25;45822;-76
2024/04/11 08:33:20;;;;;;;;;5.67;2.33;;;;;;;;5499510;25;45810;-75
2024/04/11 08:35:47;;;;;;;;;3.33;3.33;;;;;;;;5500815;25;43908;-75
2024/04/11 08:38:12;;;;;;;;;3.33;3.33;;;;;;;;5501688;25;43984;-76
2024/04/11 08:40:40;;;;;;;;;4.00;3.33;;;;;;;;5501619;25;43765;-75
2024/04/11 08:43:05;;;;;;;;;4.00;3.00;;;;;;;;5500939;25;43828;-76
2024/04/11 08:45:31;;;;;;;;;6.00;4.00;;;;;;;;5499688;25;44964;-76
2024/04/11 08:47:56;;;;;;;;;4.67;4.67;;;;;;;;5501311;25;43744;-75
2024/04/11 08:50:22;;;;;;;;;4.00;4.00;;;;;;;;5501275;25;43935;-75
2024/04/11 08:52:47;;;;;;;;;6.67;6.67;;;;;;;;5501120;25;44007;-74
2024/04/11 08:55:12;;;;;;;;;4.00;3.00;;;;;;;;5501148;25;43913;-75
2024/04/11 08:57:38;;;;;;;;;5.00;5.00;;;;;;;;5501429;25;43743;-75
2024/04/11 09:00:09;;;;;;;;;9.33;5.33;;;;;;;;5501161;25;43981;-75
2024/04/11 09:02:37;;;;;;;;;3.67;3.67;;;;;;;;5500892;25;45330;-76
2024/04/11 09:05:05;;;;;;;;;5.00;4.33;;;;;;;;5500568;25;43897;-76
2024/04/11 09:07:32;;;;;;;;;4.33;3.00;;;;;;;;5504271;25;43923;-76
2024/04/11 09:10:04;;;;;;;;;5.00;5.00;;;;;;;;5504247;25;43842;-75
2024/04/11 09:12:29;;;;;;;;;6.00;5.00;;;;;;;;5501988;25;45779;-75
2024/04/11 09:14:55;;;;;;;;;4.00;3.00;;;;;;;;5503540;25;43737;-75
2024/04/11 09:17:21;;;;;;;;;5.33;5.33;;;;;;;;5504667;25;43988;-75
2024/04/11 09:19:47;;;;;;;;;3.00;3.00;;;;;;;;5500879;25;44114;-77
2024/04/11 09:22:13;;;;;;;;;3.33;3.00;;;;;;;;5503481;25;45667;-75
2024/04/11 09:24:40;;;;;;;;;3.67;3.67;;;;;;;;5502493;25;43976;-75
2024/04/11 09:27:07;;;;;;;;;4.00;4.00;;;;;;;;5504473;25;43879;-75
2024/04/11 09:29:35;;;;;;;;;2.00;2.00;;;;;;;;5503696;25;43926;-75
2024/04/11 09:32:03;;;;;;;;;3.00;3.00;;;;;;;;5502011;25;43975;-75
2024/04/11 09:34:30;;;;;;;;;3.00;3.00;;;;;;;;5501646;25;44569;-74
2024/04/11 09:36:59;;;;;;;;;4.00;4.00;;;;;;;;5501485;25;43796;-74
2024/04/11 09:42:25;;;;;;;;;3.00;3.00;;;;;;;;5503769;25;43879;-75
2024/04/11 09:44:52;;;;;;;;;5.00;4.00;;;;;;;;5504140;25;43957;-75
2024/04/11 09:47:26;;;;;;;;;4.33;4.33;;;;;;;;5503836;25;43992;-74
2024/04/11 09:50:04;;;;;;;;;4.67;3.67;;;;;;;;5504368;25;44006;-75
2024/04/11 09:52:34;;;;;;;;;4.00;4.00;;;;;;;;5503883;25;43980;-74
2024/04/11 09:55:03;;;;;;;;;3.75;3.75;;;;;;;;5504079;25;43746;-75
2024/04/11 09:57:29;;;;;;;;;2.33;2.33;;;;;;;;5504053;25;43812;-75
2024/04/11 09:59:56;;;;;;;;;5.00;3.33;;;;;;;;5503727;25;43901;-75
2024/04/11 10:02:25;;;;;;;;;4.00;4.00;;;;;;;;5499916;25;47100;-75
2024/04/11 10:05:23;;;;;;;;;3.25;3.00;;;;;;;;5503200;25;43924;-74
2024/04/11 10:07:57;;;;;;;;;2.00;2.00;;;;;;;;5503421;25;43984;-75
2024/04/11 10:10:26;;;;;;;;;4.25;3.00;;;;;;;;5501946;25;44768;-74
2024/04/11 10:12:52;;;;;;;;;4.00;4.00;;;;;;;;5500953;25;46772;-75
2024/04/11 10:15:18;;;;;;;;;2.00;2.00;;;;;;;;5502889;25;43984;-76
2024/04/11 10:18:01;;;;;;;;;3.00;3.00;;;;;;;;5500942;25;43909;-76
2024/04/11 10:20:37;;;;;;;;;4.00;4.00;;;;;;;;5503512;25;45048;-77
2024/04/11 10:23:03;;;;;;;;;5.00;5.00;;;;;;;;5503292;25;43927;-77
2024/04/11 10:25:29;;;;;;;;;6.00;6.00;;;;;;;;5503442;25;43943;-77
2024/04/11 10:27:56;;;;;;;;;4.00;4.00;;;;;;;;5503411;25;44065;-76
2024/04/11 10:30:23;;;;;;;;;5.75;3.50;;;;;;;;5503180;25;44074;-76
2024/04/11 10:32:51;;;;;;;;;4.00;3.00;;;;;;;;5503103;25;44772;-77
2024/04/11 10:35:19;;;;;;;;;5.50;5.50;;;;;;;;5503192;25;43909;-76
2024/04/11 10:37:46;;;;;;;;;3.25;3.25;;;;;;;;5503210;25;43990;-77
2024/04/11 10:40:15;;;;;;;;;4.50;4.50;;;;;;;;5503570;25;44176;-76
2024/04/11 10:43:11;;;;;;;;;3.00;3.00;;;;;;;;5501019;25;46870;-77
2024/04/11 10:45:27;;;;;;;;;4.00;3.00;;;;;;;;5502595;25;43958;-76
2024/04/11 10:47:52;;;;;;;;;2.67;2.67;;;;;;;;5501875;25;43854;-76
2024/04/11 10:50:17;;;;;;;;;3.33;3.33;;;;;;;;5515863;25;43696;-75
2024/04/11 10:52:46;;;;;;;;;4.00;4.00;;;;;;;;5501546;25;45630;-75
2024/04/11 10:55:13;;;;;;;;;5.75;4.25;;;;;;;;5501486;25;44870;-75
2024/04/11 10:57:40;;;;;;;;;4.75;4.75;;;;;;;;5503842;25;43927;-74
2024/04/11 11:00:10;;;;;;;;;3.25;3.25;;;;;;;;5501205;25;43901;-76
2024/04/11 11:02:37;;;;;;;;;6.00;5.00;;;;;;;;5502763;25;43810;-76
2024/04/11 11:05:06;;;;;;;;;2.75;2.75;;;;;;;;5503082;25;43968;-76
2024/04/11 11:07:31;;;;;;;;;3.75;3.00;;;;;;;;5503060;25;43906;-77
2024/04/11 11:09:57;;;;;;;;;4.75;4.00;;;;;;;;5503073;25;43819;-76
2024/04/11 11:12:23;;;;;;;;;5.00;4.25;;;;;;;;5500595;25;46648;-76
2024/04/11 11:14:49;;;;;;;;;4.00;2.25;;;;;;;;5502927;25;43819;-76
2024/04/11 11:17:17;;;;;;;;;5.00;5.00;;;;;;;;5503634;25;43785;-76
2024/04/11 11:19:42;;;;;;;;;5.67;5.67;;;;;;;;5502969;25;43907;-77
2024/04/11 11:22:08;;;;;;;;;3.00;3.00;;;;;;;;5500849;25;46943;-77
2024/04/11 11:24:34;;;;;;;;;5.00;5.00;;;;;;;;5503010;25;43976;-76
2024/04/11 11:27:00;;;;;;;;;6.75;6.75;;;;;;;;5502836;25;43927;-77
2024/04/11 11:29:26;;;;;;;;;5.00;4.50;;;;;;;;5499464;25;44974;-75
2024/04/11 11:32:04;;;;;;;;;2.50;2.50;;;;;;;;5503391;25;43903;-76
2024/04/11 11:34:35;;;;;;;;;4.00;4.00;;;;;;;;5502521;25;44044;-75
2024/04/11 11:37:01;;;;;;;;;3.00;3.00;;;;;;;;5503149;25;43860;-76
2024/04/11 11:39:33;;;;;;;;;3.25;3.25;;;;;;;;5503833;25;43950;-76
2024/04/11 11:42:20;;;;;;;;;4.00;4.00;;;;;;;;5503136;25;43891;-75
2024/04/11 11:47:33;;;;;;;;;2.75;2.75;;;;;;;;5502573;25;43706;-75
2024/04/11 11:50:00;;;;;;;;;6.00;6.00;;;;;;;;5500725;25;45177;-76
2024/04/11 11:52:27;;;;;;;;;6.50;6.00;;;;;;;;5502563;25;43807;-76
2024/04/11 11:54:54;;;;;;;;;6.75;5.25;;;;;;;;5501221;25;43848;-76
2024/04/11 11:57:22;;;;;;;;;5.50;5.50;;;;;;;;5501066;25;43818;-75
2024/04/11 11:59:47;;;;;;;;;4.00;4.00;;;;;;;;5502484;25;43861;-74
2024/04/11 12:02:15;;;;;;;;;5.50;5.50;;;;;;;;5502218;25;44722;-75
2024/04/11 12:04:44;;;;;;;;;5.25;5.25;;;;;;;;5502044;25;44063;-75
2024/04/11 12:07:11;;;;;;;;;4.00;3.00;;;;;;;;5502466;25;43881;-75
2024/04/11 12:09:43;;;;;;;;;4.50;3.50;;;;;;;;5502356;25;43979;-75
2024/04/11 12:12:20;;;;;;;;;4.25;4.25;;;;;;;;5502062;25;45326;-75
2024/04/11 12:14:46;;;;;;;;;5.75;4.50;;;;;;;;5502113;25;43918;-75
2024/04/11 12:17:14;;;;;;;;;2.75;2.75;;;;;;;;5500441;25;43965;-75
2024/04/11 12:19:40;;;;;;;;;5.25;5.25;;;;;;;;5501564;25;43977;-75
2024/04/11 12:22:15;;;;;;;;;4.00;4.00;;;;;;;;5501928;25;43973;-75
2024/04/11 12:24:41;;;;;;;;;5.00;5.00;;;;;;;;5501994;25;43873;-75
2024/04/11 12:27:06;;;;;;;;;5.25;5.25;;;;;;;;5502286;25;43915;-75
2024/04/11 12:29:31;;;;;;;;;6.50;5.75;;;;;;;;5501752;25;44020;-75
2024/04/11 12:32:02;;;;;;;;;5.00;5.00;;;;;;;;5501926;25;44031;-75
2024/04/11 12:34:27;;;;;;;;;4.25;4.00;;;;;;;;5501997;25;43683;-75
2024/04/11 12:36:58;;;;;;;;;4.75;4.75;;;;;;;;5501221;25;43770;-75
2024/04/11 12:39:32;;;;;;;;;6.00;6.00;;;;;;;;5501832;25;44716;-76
2024/04/11 12:42:00;;;;;;;;;3.33;3.33;;;;;;;;5504032;25;43979;-75
2024/04/11 12:44:26;;;;;;;;;3.75;3.75;;;;;;;;5504622;25;43984;-75
2024/04/11 12:46:56;;;;;;;;;4.00;4.00;;;;;;;;5496282;25;43831;-76
2024/04/11 12:49:29;;;;;;;;;6.25;5.25;;;;;;;;5499250;25;43871;-75
2024/04/11 12:51:55;;;;;;;;;4.25;4.25;;;;;;;;5504880;25;44056;-74
2024/04/11 12:54:26;;;;;;;;;7.75;7.75;;;;;;;;5504410;25;43883;-75
2024/04/11 12:57:04;;;;;;;;;7.00;5.50;;;;;;;;5502711;25;43850;-75
2024/04/11 12:59:30;;;;;;;;;10.25;8.50;;;;;;;;5504444;25;43943;-75
2024/04/11 13:01:59;;;;;;;;;5.00;4.75;;;;;;;;5502443;25;46774;-75
2024/04/11 13:04:36;;;;;;;;;5.50;5.50;;;;;;;;5502967;25;44424;-74
2024/04/11 13:07:02;;;;;;;;;5.50;4.50;;;;;;;;5504477;25;43832;-74
2024/04/11 13:09:48;;;;;;;;;8.25;6.00;;;;;;;;5502359;25;44808;-75
2024/04/11 13:12:16;;;;;;;;;3.25;3.25;;;;;;;;5502453;25;45802;-74
2024/04/11 13:14:55;;;;;;;;;10.25;9.00;;;;;;;;5503861;25;43845;-75
2024/04/11 13:17:23;;;;;;;;;9.00;9.00;;;;;;;;5504418;25;43838;-75
2024/04/11 13:19:48;;;;;;;;;6.00;6.00;;;;;;;;5504257;25;43765;-75
2024/04/11 13:22:14;;;;;;;;;6.75;6.75;;;;;;;;5503506;25;43953;-75
2024/04/11 13:24:42;;;;;;;;;8.25;7.00;;;;;;;;5504447;25;43932;-75
2024/04/11 13:27:10;;;;;;;;;5.50;5.00;;;;;;;;5504623;25;43965;-75
2024/04/11 13:29:35;;;;;;;;;6.50;6.50;;;;;;;;5504041;25;43971;-75
2024/04/11 13:32:04;;;;;;;;;7.75;7.75;;;;;;;;5504238;25;43992;-75
2024/04/11 13:37:14;;;;;;;;;6.25;6.25;;;;;;;;5504022;25;43838;-75
2024/04/11 13:42:27;;;;;;;;;4.50;4.00;;;;;;;;5504018;25;44628;-74
2024/04/11 13:44:53;;;;;;;;;8.50;6.50;;;;;;;;5502067;25;44650;-75
2024/04/11 13:47:22;;;;;;;;;5.75;5.75;;;;;;;;5504248;25;43961;-75
2024/04/11 13:49:57;;;;;;;;;5.50;5.50;;;;;;;;5503925;25;43863;-75
2024/04/11 13:52:26;;;;;;;;;5.75;5.75;;;;;;;;5502960;25;43865;-75
2024/04/11 13:54:51;;;;;;;;;4.25;4.25;;;;;;;;5503852;25;43751;-74
2024/04/11 13:57:32;;;;;;;;;5.50;5.00;;;;;;;;5503990;25;43784;-74
2024/04/11 13:59:57;;;;;;;;;5.00;5.00;;;;;;;;5500395;25;43920;-75
2024/04/11 14:02:46;;;;;;;;;6.00;6.00;;;;;;;;5502970;25;44478;-75
2024/04/11 14:05:12;;;;;;;;;5.00;5.00;;;;;;;;5503384;25;43968;-74
2024/04/11 14:07:38;;;;;;;;;5.00;3.75;;;;;;;;5503799;25;43836;-74
2024/04/11 14:10:04;;;;;;;;;5.00;4.00;;;;;;;;5501615;25;44096;-74
2024/04/11 14:12:29;;;;;;;;;4.50;4.00;;;;;;;;5503189;25;44017;-75
2024/04/11 14:14:55;;;;;;;;;6.75;5.00;;;;;;;;5502545;25;43815;-74
2024/04/11 14:17:23;;;;;;;;;5.00;4.50;;;;;;;;5503612;25;44014;-74
2024/04/11 14:19:52;;;;;;;;;27.33;26.67;;;;;;;;5498739;25;43777;-75
2024/04/11 14:27:29;;;;;;;;;3.00;2.75;;;;;;;;5503601;25;43803;-74
2024/04/11 14:29:56;;;;;;;;;5.25;5.00;;;;;;;;5503386;25;44021;-74
2024/04/11 14:32:29;;;;;;;;;10.25;10.00;;;;;;;;5503727;25;44180;-75
2024/04/11 14:39:53;;;;;;;;;5.75;4.25;;;;;;;;5503522;25;44118;-75
2024/04/11 14:42:24;;;;;;;;;7.50;7.00;;;;;;;;5502978;25;44038;-74
2024/04/11 14:44:53;;;;;;;;;6.25;4.00;;;;;;;;5500882;25;44238;-75
2024/04/11 14:47:21;;;;;;;;;6.25;5.00;;;;;;;;5501522;25;43908;-74
2024/04/11 14:49:55;;;;;;;;;5.00;4.75;;;;;;;;5503845;25;44268;-74
2024/04/11 14:52:20;;;;;;;;;4.00;4.00;;;;;;;;5503237;25;45114;-74
2024/04/11 14:54:46;;;;;;;;;5.00;5.00;;;;;;;;5503337;25;43953;-75
2024/04/11 14:57:11;;;;;;;;;5.75;5.75;;;;;;;;5503555;25;43971;-74
2024/04/11 14:59:42;;;;;;;;;6.00;4.25;;;;;;;;5500930;25;44634;-74
2024/04/11 15:02:09;;;;;;;;;6.00;6.00;;;;;;;;5501862;25;44753;-75
2024/04/11 15:04:37;;;;;;;;;5.75;5.00;;;;;;;;5500863;25;44091;-75